createdAt,value
2022-11-16T00:02:15.387Z,2.40
2022-11-16T00:05:01.801Z,2.70
2022-11-16T00:07:48.312Z,2.40
2022-11-16T00:10:36.220Z,2.57
2022-11-16T00:13:22.924Z,2.77
2022-11-16T00:16:14.314Z,2.43
2022-11-16T00:19:03.887Z,2.33
2022-11-16T00:21:50.909Z,2.50
2022-11-16T00:24:37.334Z,2.20
2022-11-16T00:27:25.109Z,2.70
2022-11-16T00:30:12.622Z,2.40
2022-11-16T00:33:01.771Z,2.27
2022-11-16T00:35:48.538Z,2.50
2022-11-16T00:38:35.616Z,2.10
2022-11-16T00:41:22.463Z,2.37
2022-11-16T00:44:10.878Z,2.00
2022-11-16T00:46:57.447Z,2.30
2022-11-16T00:49:43.995Z,2.40
2022-11-16T00:52:30.524Z,2.03
2022-11-16T00:55:17.219Z,2.20
2022-11-16T00:58:03.865Z,2.30
2022-11-16T01:00:52.008Z,2.17
2022-11-16T01:03:39.229Z,2.43
2022-11-16T01:06:26.127Z,2.60
2022-11-16T01:09:12.856Z,2.30
2022-11-16T01:12:12.499Z,2.20
2022-11-16T01:14:59.259Z,2.10
2022-11-16T01:17:47.346Z,2.23
2022-11-16T01:20:34.156Z,2.33
2022-11-16T01:23:20.526Z,2.43
2022-11-16T01:26:07.273Z,2.40
2022-11-16T01:28:53.721Z,2.50
2022-11-16T01:31:40.341Z,2.40
2022-11-16T01:34:28.249Z,2.40
2022-11-16T01:37:15.031Z,2.30
2022-11-16T01:40:01.524Z,2.23
2022-11-16T01:42:49.456Z,2.50
2022-11-16T01:45:41.163Z,2.53
2022-11-16T01:48:31.515Z,2.43
2022-11-16T01:51:20.280Z,2.63
2022-11-16T01:54:09.743Z,2.40
2022-11-16T01:56:58.173Z,2.60
2022-11-16T01:59:47.206Z,2.63
2022-11-16T02:02:34.192Z,2.53
2022-11-16T02:05:23.519Z,2.70
2022-11-16T02:08:40.958Z,2.20
2022-11-16T02:11:47.465Z,2.93
2022-11-16T02:14:48.936Z,2.70
2022-11-16T02:17:51.031Z,2.60
2022-11-16T02:20:53.351Z,2.77
2022-11-16T02:24:12.663Z,2.43
2022-11-16T02:27:34.925Z,2.60
2022-11-16T02:30:23.610Z,2.70
2022-11-16T02:33:14.465Z,2.63
2022-11-16T02:36:03.431Z,3.50
2022-11-16T02:38:55.511Z,2.70
2022-11-16T02:41:45.322Z,2.70
2022-11-16T02:44:35.290Z,3.30
2022-11-16T02:47:26.569Z,3.13
2022-11-16T02:50:18.055Z,2.70
2022-11-16T02:53:05.030Z,3.00
2022-11-16T02:55:51.900Z,3.00
2022-11-16T02:58:38.347Z,2.63
2022-11-16T03:01:31.631Z,3.10
2022-11-16T03:04:26.038Z,3.00
2022-11-16T03:07:16.272Z,2.83
2022-11-16T03:10:03.436Z,2.80
2022-11-16T03:12:49.263Z,2.87
2022-11-16T03:15:38.803Z,2.80
2022-11-16T03:18:29.011Z,3.03
2022-11-16T03:21:23.983Z,2.90
2022-11-16T03:24:11.257Z,3.03
2022-11-16T03:27:04.666Z,3.53
2022-11-16T03:30:01.536Z,2.80
2022-11-16T03:32:55.909Z,3.37
2022-11-16T03:35:49.380Z,2.80
2022-11-16T03:38:40.736Z,3.30
2022-11-16T03:41:30.263Z,2.77
2022-11-16T03:44:18.728Z,3.70
2022-11-16T03:47:05.852Z,3.37
2022-11-16T03:49:52.537Z,3.20
2022-11-16T03:52:39.376Z,3.07
2022-11-16T03:55:27.463Z,3.30
2022-11-16T03:58:14.227Z,2.83
2022-11-16T04:01:00.673Z,3.43
2022-11-16T04:03:47.576Z,3.40
2022-11-16T04:06:51.583Z,3.40
2022-11-16T04:09:55.408Z,3.83
2022-11-16T04:13:03.345Z,2.80
2022-11-16T04:16:07.399Z,4.00
2022-11-16T04:19:11.229Z,3.13
2022-11-16T04:22:19.999Z,3.53
2022-11-16T04:25:11.125Z,3.37
2022-11-16T04:28:13.923Z,3.40
2022-11-16T04:31:21.230Z,3.30
2022-11-16T04:34:25.199Z,3.20
2022-11-16T04:37:36.081Z,3.40
2022-11-16T04:40:24.306Z,2.90
2022-11-16T04:43:12.395Z,3.23
2022-11-16T04:46:16.323Z,3.10
2022-11-16T04:49:03.102Z,2.97
2022-11-16T04:51:49.538Z,3.33
2022-11-16T04:54:35.915Z,3.97
2022-11-16T04:57:22.347Z,3.63
2022-11-16T05:00:13.002Z,4.47
2022-11-16T05:03:01.548Z,3.80
2022-11-16T05:05:50.996Z,3.40
2022-11-16T05:08:37.269Z,3.80
2022-11-16T05:11:23.876Z,3.90
2022-11-16T05:14:10.755Z,3.90
2022-11-16T05:16:58.675Z,3.20
2022-11-16T05:20:03.372Z,3.40
2022-11-16T05:22:54.790Z,3.60
2022-11-16T05:25:41.575Z,3.50
2022-11-16T05:28:27.864Z,4.07
2022-11-16T05:31:14.283Z,4.17
2022-11-16T05:34:02.136Z,3.90
2022-11-16T05:36:48.857Z,4.10
2022-11-16T05:39:35.439Z,3.90
2022-11-16T05:42:22.254Z,3.83
2022-11-16T05:45:09.368Z,4.33
2022-11-16T05:47:56.125Z,4.33
2022-11-16T05:50:44.021Z,3.83
2022-11-16T05:53:30.870Z,4.03
2022-11-16T05:56:17.929Z,3.80
2022-11-16T05:59:04.613Z,4.17
2022-11-16T06:01:51.368Z,3.53
2022-11-16T06:04:38.057Z,4.07
2022-11-16T06:07:25.933Z,3.50
2022-11-16T06:10:12.864Z,3.60
2022-11-16T06:12:59.367Z,3.53
2022-11-16T06:15:52.300Z,3.80
2022-11-16T06:18:40.328Z,4.13
2022-11-16T06:21:26.953Z,4.10
2022-11-16T06:24:15.266Z,3.90
2022-11-16T06:27:01.967Z,4.37
2022-11-16T06:29:48.460Z,4.60
2022-11-16T06:32:34.960Z,3.60
2022-11-16T06:35:21.462Z,4.13
2022-11-16T06:38:08.154Z,4.47
2022-11-16T06:40:57.508Z,4.20
2022-11-16T06:43:44.047Z,3.90
2022-11-16T06:46:30.652Z,4.03
2022-11-16T06:49:17.107Z,3.90
2022-11-16T06:52:03.578Z,4.80
2022-11-16T06:54:49.971Z,4.80
2022-11-16T06:57:37.912Z,5.07
2022-11-16T07:00:24.771Z,5.20
2022-11-16T07:03:11.371Z,5.27
2022-11-16T07:05:58.216Z,4.07
2022-11-16T07:08:44.576Z,4.50
2022-11-16T07:11:31.051Z,4.13
2022-11-16T07:14:19.279Z,3.93
2022-11-16T07:17:09.471Z,4.23
2022-11-16T07:19:56.659Z,4.17
2022-11-16T07:22:43.160Z,3.80
2022-11-16T07:25:29.869Z,4.00
2022-11-16T07:28:16.666Z,4.77
2022-11-16T07:31:05.242Z,4.13
2022-11-16T07:33:52.889Z,4.37
2022-11-16T07:36:40.065Z,4.00
2022-11-16T07:39:26.585Z,4.60
2022-11-16T07:42:13.422Z,4.23
2022-11-16T07:45:00.005Z,4.23
2022-11-16T07:47:52.223Z,4.33
2022-11-16T07:50:38.874Z,3.33
2022-11-16T07:53:25.336Z,3.50
2022-11-16T07:56:13.130Z,3.63
2022-11-16T07:58:59.697Z,3.70
2022-11-16T08:01:48.243Z,3.77
2022-11-16T08:04:38.623Z,3.47
2022-11-16T08:07:25.160Z,3.20
2022-11-16T08:10:12.193Z,4.00
2022-11-16T08:12:58.882Z,4.53
2022-11-16T08:15:45.617Z,4.00
2022-11-16T08:18:32.999Z,3.50
2022-11-16T08:21:21.365Z,3.70
2022-11-16T08:24:08.702Z,3.57
2022-11-16T08:26:57.202Z,3.97
2022-11-16T08:29:44.114Z,3.53
2022-11-16T08:32:30.740Z,3.63
2022-11-16T08:35:17.901Z,3.80
2022-11-16T08:38:06.167Z,4.10
2022-11-16T08:40:52.927Z,4.03
2022-11-16T08:43:40.584Z,3.43
2022-11-16T08:46:27.843Z,3.80
2022-11-16T08:49:14.418Z,3.90
2022-11-16T08:52:01.115Z,3.80
2022-11-16T08:54:49.019Z,3.80
2022-11-16T08:57:35.984Z,3.67
2022-11-16T09:00:22.608Z,3.47
2022-11-16T09:03:09.403Z,4.00
2022-11-16T09:05:55.945Z,3.97
2022-11-16T09:08:44.346Z,4.87
2022-11-16T09:11:32.561Z,6.33
2022-11-16T09:14:19.336Z,6.17
2022-11-16T09:17:06.087Z,5.63
2022-11-16T09:19:53.029Z,5.43
2022-11-16T09:22:39.895Z,6.00
2022-11-16T09:25:26.562Z,5.60
2022-11-16T09:28:14.905Z,4.70
2022-11-16T09:31:04.059Z,5.27
2022-11-16T09:33:50.624Z,4.90
2022-11-16T09:36:37.252Z,5.67
2022-11-16T09:39:31.111Z,5.80
2022-11-16T09:42:34.284Z,6.50
2022-11-16T09:45:28.214Z,7.20
2022-11-16T09:48:17.031Z,6.60
2022-11-16T09:51:08.272Z,6.63
2022-11-16T09:53:59.245Z,6.47
2022-11-16T09:56:48.552Z,7.53
2022-11-16T09:59:41.789Z,7.07
2022-11-16T10:02:34.832Z,7.37
2022-11-16T10:05:25.575Z,8.20
2022-11-16T10:08:17.450Z,7.47
2022-11-16T10:11:11.579Z,8.00
2022-11-16T10:14:06.790Z,8.03
2022-11-16T10:16:58.138Z,8.07
2022-11-16T10:19:54.449Z,8.77
2022-11-16T10:22:48.154Z,8.83
2022-11-16T10:25:42.745Z,8.63
2022-11-16T10:28:56.620Z,9.43
2022-11-16T10:32:01.917Z,9.17
2022-11-16T10:34:53.462Z,10.40
2022-11-16T10:37:45.928Z,10.97
2022-11-16T10:40:38.407Z,10.90
2022-11-16T10:43:29.270Z,10.77
2022-11-16T10:46:21.993Z,10.17
2022-11-16T10:49:12.951Z,11.37
2022-11-16T10:52:01.205Z,10.83
2022-11-16T10:54:47.971Z,11.00
2022-11-16T10:57:56.574Z,10.67
2022-11-16T11:00:47.081Z,10.50
2022-11-16T11:03:34.195Z,10.90
2022-11-16T11:06:22.071Z,10.63
2022-11-16T11:09:23.618Z,10.80
2022-11-16T11:12:33.332Z,11.40
2022-11-16T11:15:26.805Z,11.67
2022-11-16T11:18:30.177Z,11.00
2022-11-16T11:21:20.193Z,11.43
2022-11-16T11:24:42.949Z,11.43
2022-11-16T11:27:27.699Z,11.60
2022-11-16T11:30:20.639Z,10.80
2022-11-16T11:33:12.244Z,11.63
2022-11-16T11:36:04.063Z,12.63
2022-11-16T11:39:03.422Z,11.77
2022-11-16T11:42:03.384Z,10.90
2022-11-16T11:44:57.289Z,14.23
2022-11-16T11:47:57.925Z,15.17
2022-11-16T11:50:50.826Z,11.53
2022-11-16T11:53:45.251Z,11.90
2022-11-16T11:56:34.202Z,11.83
2022-11-16T11:59:24.402Z,11.30
2022-11-16T12:02:29.822Z,12.83
2022-11-16T12:05:49.380Z,12.00
2022-11-16T12:08:48.977Z,12.30
2022-11-16T12:11:49.584Z,11.73
2022-11-16T12:14:59.602Z,11.93
2022-11-16T12:17:56.366Z,12.27
2022-11-16T12:20:51.161Z,11.80
2022-11-16T12:23:56.285Z,11.23
2022-11-16T12:26:53.859Z,11.83
2022-11-16T12:29:50.684Z,11.77
2022-11-16T12:32:51.909Z,11.43
2022-11-16T12:35:49.589Z,10.93
2022-11-16T12:38:53.058Z,11.70
2022-11-16T12:41:51.985Z,13.23
2022-11-16T12:45:00.557Z,12.23
2022-11-16T12:48:03.858Z,11.73
2022-11-16T12:51:01.586Z,11.33
2022-11-16T12:54:07.208Z,12.20
2022-11-16T12:56:59.399Z,12.23
2022-11-16T13:00:02.700Z,12.53
2022-11-16T13:03:05.190Z,12.10
2022-11-16T13:05:57.744Z,12.57
2022-11-16T13:08:53.411Z,12.47
2022-11-16T13:11:43.518Z,12.83
2022-11-16T13:14:34.943Z,12.80
2022-11-16T13:17:24.924Z,12.07
2022-11-16T13:20:26.310Z,12.43
2022-11-16T13:23:23.955Z,11.80
2022-11-16T13:26:20.826Z,12.20
2022-11-16T13:29:19.892Z,11.80
2022-11-16T13:32:13.795Z,11.97
2022-11-16T13:35:01.420Z,11.40
2022-11-16T13:37:51.723Z,11.60
2022-11-16T13:40:38.480Z,11.40
2022-11-16T13:43:25.216Z,10.73
2022-11-16T13:46:27.664Z,11.03
2022-11-16T13:49:28.386Z,9.97
2022-11-16T13:52:23.748Z,11.10
2022-11-16T13:55:25.674Z,9.83
2022-11-16T13:58:20.691Z,10.30
2022-11-16T14:01:10.826Z,10.23
2022-11-16T14:04:41.796Z,10.40
2022-11-16T14:07:37.596Z,9.80
2022-11-16T14:11:10.131Z,10.57
2022-11-16T14:14:00.044Z,9.33
2022-11-16T14:16:49.943Z,9.37
2022-11-16T14:19:56.035Z,9.43
2022-11-16T14:23:03.406Z,9.97
2022-11-16T14:25:54.191Z,9.57
2022-11-16T14:29:12.131Z,8.73
2022-11-16T14:32:02.117Z,9.20
2022-11-16T14:34:51.979Z,9.63
2022-11-16T14:37:41.491Z,9.97
2022-11-16T14:40:28.569Z,9.97
2022-11-16T14:43:21.681Z,9.97
2022-11-16T14:46:18.335Z,9.97
2022-11-16T14:49:05.650Z,10.73
2022-11-16T14:51:55.963Z,11.57
2022-11-16T14:54:47.674Z,9.80
2022-11-16T14:57:34.448Z,12.10
2022-11-16T15:00:24.931Z,10.63
2022-11-16T15:03:13.722Z,10.40
2022-11-16T15:06:02.930Z,10.67
2022-11-16T15:08:54.183Z,11.17
2022-11-16T15:12:00.688Z,9.90
2022-11-16T15:14:50.623Z,9.97
2022-11-16T15:17:38.173Z,9.87
2022-11-16T15:20:27.759Z,10.10
2022-11-16T15:23:16.203Z,9.87
2022-11-16T15:26:04.645Z,9.33
2022-11-16T15:28:52.407Z,9.30
2022-11-16T15:31:43.174Z,9.80
2022-11-16T15:34:29.744Z,10.07
2022-11-16T15:37:27.875Z,9.27
2022-11-16T15:40:14.953Z,9.33
2022-11-16T15:43:04.629Z,9.13
2022-11-16T15:45:51.877Z,10.03
2022-11-16T15:48:39.640Z,9.13
2022-11-16T15:51:28.116Z,9.37
2022-11-16T15:54:22.746Z,9.80
2022-11-16T15:57:13.165Z,10.27
2022-11-16T16:00:00.051Z,10.53
2022-11-16T16:02:46.502Z,10.83
2022-11-16T16:05:38.363Z,11.13
2022-11-16T16:08:28.739Z,10.87
2022-11-16T16:11:28.978Z,10.67
2022-11-16T16:14:24.719Z,10.60
2022-11-16T16:17:13.124Z,11.00
2022-11-16T16:20:02.064Z,11.20
2022-11-16T16:22:49.019Z,11.77
2022-11-16T16:25:37.170Z,10.70
2022-11-16T16:28:25.255Z,11.23
2022-11-16T16:31:12.612Z,10.97
2022-11-16T16:33:59.559Z,12.07
2022-11-16T16:36:46.179Z,12.23
2022-11-16T16:39:36.069Z,12.40
2022-11-16T16:42:22.780Z,11.27
2022-11-16T16:45:15.428Z,12.17
2022-11-16T16:48:02.090Z,12.50
2022-11-16T16:50:48.932Z,10.87
2022-11-16T16:53:36.639Z,12.17
2022-11-16T16:56:23.393Z,11.37
2022-11-16T16:59:10.227Z,11.80
2022-11-16T17:01:58.642Z,11.83
2022-11-16T17:04:46.864Z,11.97
2022-11-16T17:07:33.403Z,12.43
2022-11-16T17:10:19.982Z,11.60
2022-11-16T17:13:06.271Z,11.43
2022-11-16T17:15:52.590Z,11.73
2022-11-16T17:18:40.493Z,12.20
2022-11-16T17:21:27.367Z,11.43
2022-11-16T17:24:13.755Z,11.30
2022-11-16T17:27:00.328Z,11.60
2022-11-16T17:29:46.850Z,11.23
2022-11-16T17:32:33.324Z,12.10
2022-11-16T17:35:21.318Z,11.90
2022-11-16T17:38:09.780Z,12.20
2022-11-16T17:41:04.899Z,11.73
2022-11-16T17:43:54.053Z,11.13
2022-11-16T17:46:40.565Z,11.90
2022-11-16T17:49:27.242Z,11.43
2022-11-16T17:52:15.179Z,11.83
2022-11-16T17:55:01.907Z,11.03
2022-11-16T17:57:48.990Z,11.43
2022-11-16T18:00:35.883Z,10.87
2022-11-16T18:03:24.029Z,11.30
2022-11-16T18:06:13.477Z,12.03
2022-11-16T18:09:01.869Z,11.20
2022-11-16T18:11:48.455Z,12.17
2022-11-16T18:14:35.012Z,12.63
2022-11-16T18:17:21.670Z,12.47
2022-11-16T18:20:09.579Z,11.73
2022-11-16T18:22:56.887Z,11.87
2022-11-16T18:25:44.878Z,12.63
2022-11-16T18:28:31.642Z,11.83
2022-11-16T18:31:19.713Z,11.90
2022-11-16T18:34:06.254Z,12.50
2022-11-16T18:36:52.759Z,11.40
2022-11-16T18:39:39.290Z,12.07
2022-11-16T18:42:27.213Z,11.13
2022-11-16T18:45:13.921Z,11.33
2022-11-16T18:48:00.604Z,10.53
2022-11-16T18:50:47.147Z,11.67
2022-11-16T18:53:34.141Z,11.60
2022-11-16T18:56:21.324Z,10.77
2022-11-16T18:59:09.468Z,11.43
2022-11-16T19:01:56.260Z,12.43
2022-11-16T19:04:42.789Z,11.57
2022-11-16T19:07:29.286Z,12.07
2022-11-16T19:10:16.406Z,12.13
2022-11-16T19:13:04.819Z,11.20
2022-11-16T19:15:56.665Z,12.00
2022-11-16T19:18:43.437Z,11.53
2022-11-16T19:21:30.264Z,11.63
2022-11-16T19:24:16.962Z,11.93
2022-11-16T19:27:03.398Z,11.37
2022-11-16T19:29:49.859Z,11.47
2022-11-16T19:32:37.620Z,11.63
2022-11-16T19:35:24.845Z,12.17
2022-11-16T19:38:11.310Z,11.97
2022-11-16T19:40:57.727Z,12.43
2022-11-16T19:43:44.856Z,11.87
2022-11-16T19:46:33.301Z,11.80
2022-11-16T19:49:23.364Z,11.33
2022-11-16T19:52:10.431Z,11.20
2022-11-16T19:54:57.020Z,11.27
2022-11-16T19:57:43.801Z,11.10
2022-11-16T20:00:30.489Z,11.53
2022-11-16T20:03:17.378Z,11.30
2022-11-16T20:06:11.062Z,10.63
2022-11-16T20:09:00.644Z,11.00
2022-11-16T20:11:47.388Z,10.80
2022-11-16T20:14:33.949Z,10.57
2022-11-16T20:17:20.896Z,10.23
2022-11-16T20:20:08.226Z,10.47
2022-11-16T20:22:55.973Z,9.60
2022-11-16T20:25:42.795Z,10.77
2022-11-16T20:28:29.399Z,9.80
2022-11-16T20:31:17.210Z,10.33
2022-11-16T20:34:07.752Z,9.57
2022-11-16T20:36:54.614Z,9.53
2022-11-16T20:39:42.959Z,9.73
2022-11-16T20:42:29.705Z,10.90
2022-11-16T20:45:16.987Z,9.83
2022-11-16T20:48:04.301Z,10.93
2022-11-16T20:50:54.792Z,9.50
2022-11-16T20:53:41.333Z,9.50
2022-11-16T20:56:29.817Z,9.10
2022-11-16T20:59:16.445Z,9.23
2022-11-16T21:02:03.086Z,8.87
2022-11-16T21:04:49.492Z,9.10
2022-11-16T21:07:36.206Z,8.60
2022-11-16T21:10:23.371Z,7.73
2022-11-16T21:13:31.971Z,8.13
2022-11-16T21:16:18.807Z,7.93
2022-11-16T21:19:05.796Z,7.13
2022-11-16T21:21:52.375Z,7.03
2022-11-16T21:24:39.054Z,6.87
2022-11-16T21:27:25.775Z,6.60
2022-11-16T21:30:15.455Z,6.23
2022-11-16T21:33:02.213Z,5.77
2022-11-16T21:35:48.667Z,5.00
2022-11-16T21:38:35.831Z,5.60
2022-11-16T21:41:23.769Z,5.40
2022-11-16T21:44:10.276Z,5.50
2022-11-16T21:46:58.055Z,5.37
2022-11-16T21:50:09.773Z,4.93
2022-11-16T21:52:51.465Z,5.50
2022-11-16T21:55:38.151Z,5.30
2022-11-16T21:58:24.949Z,5.20
2022-11-16T22:01:12.774Z,4.73
2022-11-16T22:04:18.219Z,5.13
2022-11-16T22:07:22.293Z,4.97
2022-11-16T22:10:11.161Z,5.30
2022-11-16T22:12:57.969Z,5.10
2022-11-16T22:15:44.572Z,5.27
2022-11-16T22:18:32.899Z,5.33
2022-11-16T22:21:20.890Z,4.63
2022-11-16T22:24:08.406Z,5.27
2022-11-16T22:26:55.277Z,5.20
2022-11-16T22:29:41.779Z,4.90
2022-11-16T22:32:28.324Z,4.97
2022-11-16T22:35:14.859Z,4.37
2022-11-16T22:38:03.670Z,4.90
2022-11-16T22:40:52.090Z,5.00
2022-11-16T22:43:39.352Z,5.20
2022-11-16T22:46:26.250Z,5.20
2022-11-16T22:49:12.674Z,5.07
2022-11-16T22:51:59.127Z,5.07
2022-11-16T22:54:46.955Z,5.40
2022-11-16T22:57:33.705Z,5.60
2022-11-16T23:00:20.622Z,5.27
2022-11-16T23:03:07.165Z,5.30
2022-11-16T23:05:53.623Z,4.93
2022-11-16T23:08:41.129Z,5.30
2022-11-16T23:11:47.159Z,5.20
2022-11-16T23:14:51.261Z,5.57
2022-11-16T23:17:37.851Z,5.10
2022-11-16T23:20:42.063Z,5.13
2022-11-16T23:23:46.195Z,5.80
2022-11-16T23:26:51.754Z,5.20
2022-11-16T23:29:38.429Z,5.40
2022-11-16T23:32:25.211Z,5.30
2022-11-16T23:35:12.110Z,5.73
2022-11-16T23:38:00.427Z,5.40
2022-11-16T23:40:46.806Z,5.50
2022-11-16T23:43:52.221Z,5.60
2022-11-16T23:46:39.070Z,5.73
2022-11-16T23:49:25.533Z,5.87
2022-11-16T23:52:12.479Z,5.10
2022-11-16T23:54:58.989Z,5.03
2022-11-16T23:57:45.440Z,5.07
